createdAt,value
2022-09-06T00:01:14.720Z,10.12
2022-09-06T00:03:43.636Z,10.10
2022-09-06T00:06:14.729Z,10.11
2022-09-06T00:08:45.907Z,10.11
2022-09-06T00:11:15.199Z,10.09
2022-09-06T00:13:45.044Z,10.08
2022-09-06T00:16:16.272Z,10.05
2022-09-06T00:18:45.498Z,10.01
2022-09-06T00:21:21.240Z,9.95
2022-09-06T00:23:51.807Z,9.94
2022-09-06T00:26:21.766Z,9.90
2022-09-06T00:28:50.853Z,9.87
2022-09-06T00:31:21.102Z,9.84
2022-09-06T00:33:50.152Z,9.81
2022-09-06T00:36:19.128Z,9.78
2022-09-06T00:38:47.978Z,9.73
2022-09-06T00:41:19.333Z,9.69
2022-09-06T00:43:48.237Z,9.66
2022-09-06T00:46:19.345Z,9.64
2022-09-06T00:48:49.969Z,9.64
2022-09-06T00:51:19.472Z,9.65
2022-09-06T00:53:48.034Z,9.68
2022-09-06T00:56:18.391Z,9.66
2022-09-06T00:58:48.240Z,9.64
2022-09-06T01:01:17.711Z,9.64
2022-09-06T01:03:46.692Z,9.64
2022-09-06T01:06:24.765Z,9.63
2022-09-06T01:09:03.381Z,9.59
2022-09-06T01:11:51.137Z,9.55
2022-09-06T01:14:32.730Z,9.55
2022-09-06T01:17:08.789Z,9.54
2022-09-06T01:20:05.626Z,9.53
2022-09-06T01:23:05.793Z,9.51
2022-09-06T01:25:45.060Z,9.46
2022-09-06T01:28:29.264Z,9.43
2022-09-06T01:31:06.979Z,9.43
2022-09-06T01:33:43.525Z,9.38
2022-09-06T01:36:18.172Z,9.35
2022-09-06T01:38:46.821Z,9.34
2022-09-06T01:41:15.755Z,9.36
2022-09-06T01:43:49.913Z,9.28
2022-09-06T01:46:27.327Z,9.23
2022-09-06T01:49:16.664Z,9.19
2022-09-06T01:51:59.693Z,9.15
2022-09-06T01:54:42.867Z,9.06
2022-09-06T01:57:24.079Z,9.01
2022-09-06T02:00:06.488Z,9.06
2022-09-06T02:03:05.357Z,9.00
2022-09-06T02:05:40.643Z,8.87
2022-09-06T02:08:14.219Z,8.87
2022-09-06T02:10:47.399Z,8.84
2022-09-06T02:13:18.761Z,8.86
2022-09-06T02:15:55.023Z,8.87
2022-09-06T02:18:29.841Z,8.89
2022-09-06T02:21:00.613Z,8.89
2022-09-06T02:23:34.952Z,8.88
2022-09-06T02:26:09.957Z,8.90
2022-09-06T02:28:38.485Z,8.89
2022-09-06T02:31:14.262Z,8.88
2022-09-06T02:33:47.133Z,8.89
2022-09-06T02:36:16.902Z,8.86
2022-09-06T02:38:46.879Z,8.84
2022-09-06T02:41:19.545Z,8.83
2022-09-06T02:43:48.132Z,8.80
2022-09-06T02:46:18.093Z,8.77
2022-09-06T02:48:47.104Z,8.77
2022-09-06T02:51:15.555Z,8.77
2022-09-06T02:53:44.166Z,8.75
2022-09-06T02:56:13.326Z,8.76
2022-09-06T02:58:41.839Z,8.74
2022-09-06T03:01:10.629Z,8.73
2022-09-06T03:03:41.013Z,8.71
2022-09-06T03:06:12.358Z,8.68
2022-09-06T03:08:40.861Z,8.64
2022-09-06T03:11:09.326Z,8.57
2022-09-06T03:13:38.048Z,8.50
2022-09-06T03:16:06.803Z,8.46
2022-09-06T03:18:35.856Z,8.41
2022-09-06T03:21:07.627Z,8.37
2022-09-06T03:23:36.271Z,8.36
2022-09-06T03:26:04.892Z,8.32
2022-09-06T03:28:33.730Z,8.32
2022-09-06T03:31:02.426Z,8.30
2022-09-06T03:33:33.664Z,8.28
2022-09-06T03:36:04.498Z,8.26
2022-09-06T03:38:34.897Z,8.26
2022-09-06T03:41:04.001Z,8.26
2022-09-06T03:43:33.064Z,8.22
2022-09-06T03:46:02.650Z,8.20
2022-09-06T03:48:31.480Z,8.21
2022-09-06T03:51:00.782Z,8.17
2022-09-06T03:53:30.896Z,8.18
2022-09-06T03:56:01.808Z,8.17
2022-09-06T03:58:32.596Z,8.20
2022-09-06T04:01:04.640Z,8.22
2022-09-06T04:03:33.715Z,8.24
2022-09-06T04:06:03.163Z,8.25
2022-09-06T04:08:32.465Z,8.24
2022-09-06T04:11:03.105Z,8.22
2022-09-06T04:13:32.790Z,8.19
2022-09-06T04:16:01.835Z,8.18
2022-09-06T04:18:31.016Z,8.15
2022-09-06T04:20:59.885Z,8.17
2022-09-06T04:23:35.239Z,8.16
2022-09-06T04:26:08.129Z,8.13
2022-09-06T04:28:37.287Z,8.12
2022-09-06T04:31:07.988Z,8.13
2022-09-06T04:33:38.754Z,8.17
2022-09-06T04:36:09.736Z,8.23
2022-09-06T04:38:42.240Z,8.29
2022-09-06T04:41:13.340Z,8.33
2022-09-06T04:43:41.952Z,8.34
2022-09-06T04:46:15.889Z,8.33
2022-09-06T04:48:44.626Z,8.34
2022-09-06T04:51:13.060Z,8.36
2022-09-06T04:53:42.311Z,8.36
2022-09-06T04:56:18.061Z,8.38
2022-09-06T04:58:48.614Z,8.38
2022-09-06T05:01:18.387Z,8.43
2022-09-06T05:03:47.525Z,8.46
2022-09-06T05:06:22.032Z,8.54
2022-09-06T05:08:50.593Z,8.59
2022-09-06T05:11:21.613Z,8.65
2022-09-06T05:13:50.772Z,8.72
2022-09-06T05:16:19.952Z,8.80
2022-09-06T05:18:49.121Z,8.88
2022-09-06T05:21:17.718Z,8.97
2022-09-06T05:23:47.265Z,9.04
2022-09-06T05:26:18.317Z,9.11
2022-09-06T05:28:48.249Z,9.21
2022-09-06T05:31:27.870Z,9.27
2022-09-06T05:33:57.608Z,9.34
2022-09-06T05:36:28.112Z,9.41
2022-09-06T05:38:58.030Z,9.49
2022-09-06T05:41:27.657Z,9.59
2022-09-06T05:43:57.760Z,9.65
2022-09-06T05:46:27.436Z,9.72
2022-09-06T05:49:01.514Z,9.78
2022-09-06T05:51:30.323Z,9.87
2022-09-06T05:53:58.910Z,9.95
2022-09-06T05:56:27.539Z,10.03
2022-09-06T05:58:57.705Z,10.15
2022-09-06T06:01:28.217Z,10.28
2022-09-06T06:03:59.144Z,10.39
2022-09-06T06:06:29.583Z,10.59
2022-09-06T06:08:58.962Z,10.78
2022-09-06T06:11:29.767Z,10.96
2022-09-06T06:14:00.202Z,11.17
2022-09-06T06:16:29.371Z,11.30
2022-09-06T06:18:57.763Z,11.44
2022-09-06T06:21:28.569Z,11.62
2022-09-06T06:23:59.637Z,11.77
2022-09-06T06:26:30.127Z,11.94
2022-09-06T06:29:02.325Z,12.12
2022-09-06T06:31:31.910Z,12.29
2022-09-06T06:34:03.369Z,12.46
2022-09-06T06:36:34.790Z,12.64
2022-09-06T06:39:05.495Z,12.81
2022-09-06T06:41:34.722Z,12.93
2022-09-06T06:44:06.587Z,13.09
2022-09-06T06:46:37.336Z,13.29
2022-09-06T06:49:06.657Z,13.45
2022-09-06T06:51:37.484Z,13.63
2022-09-06T06:54:06.737Z,13.81
2022-09-06T06:56:37.044Z,13.99
2022-09-06T06:59:08.624Z,14.15
2022-09-06T07:01:37.884Z,14.33
2022-09-06T07:04:08.837Z,14.49
2022-09-06T07:12:27.209Z,14.98
2022-09-06T07:14:57.625Z,15.18
2022-09-06T07:17:26.354Z,15.38
2022-09-06T07:22:44.381Z,15.75
2022-09-06T07:25:16.506Z,15.87
2022-09-06T07:27:50.207Z,15.98
2022-09-06T07:30:21.697Z,16.09
2022-09-06T07:32:50.620Z,16.27
2022-09-06T07:35:20.612Z,16.39
2022-09-06T07:37:56.665Z,16.60
2022-09-06T07:40:25.741Z,16.79
2022-09-06T07:42:54.734Z,16.99
2022-09-06T07:45:25.224Z,17.17
2022-09-06T07:47:59.207Z,17.36
2022-09-06T07:50:47.522Z,17.53
2022-09-06T07:53:25.981Z,17.66
2022-09-06T07:55:58.219Z,17.78
2022-09-06T07:58:27.167Z,17.95
2022-09-06T08:01:16.624Z,18.01
2022-09-06T08:03:47.916Z,18.05
2022-09-06T08:06:20.787Z,18.12
2022-09-06T08:11:31.285Z,18.26
2022-09-06T08:14:01.467Z,18.43
2022-09-06T08:16:32.756Z,18.53
2022-09-06T08:19:02.564Z,18.66
2022-09-06T08:21:33.128Z,18.86
2022-09-06T08:24:03.134Z,18.99
2022-09-06T08:26:33.633Z,19.09
2022-09-06T08:29:03.824Z,19.23
2022-09-06T08:31:39.742Z,19.41
2022-09-06T08:34:09.606Z,19.71
2022-09-06T08:36:38.489Z,19.89
2022-09-06T08:39:09.446Z,20.12
2022-09-06T08:41:50.194Z,20.29
2022-09-06T08:47:14.397Z,20.50
2022-09-06T08:49:45.311Z,20.61
2022-09-06T08:52:45.400Z,20.79
2022-09-06T08:55:32.405Z,20.86
2022-09-06T08:58:17.298Z,20.96
2022-09-06T09:00:51.500Z,21.21
2022-09-06T09:03:25.814Z,21.28
2022-09-06T09:05:55.384Z,21.43
2022-09-06T09:08:30.714Z,21.56
2022-09-06T09:11:03.359Z,21.77
2022-09-06T09:13:36.472Z,21.90
2022-09-06T09:16:06.500Z,22.10
2022-09-06T09:18:41.310Z,22.20
2022-09-06T09:21:11.548Z,22.23
2022-09-06T09:23:40.500Z,22.30
2022-09-06T09:26:14.353Z,22.56
2022-09-06T09:29:03.911Z,22.73
2022-09-06T09:31:37.308Z,22.84
2022-09-06T09:34:11.681Z,23.04
2022-09-06T09:36:41.427Z,22.99
2022-09-06T09:39:11.804Z,23.05
2022-09-06T09:41:44.456Z,23.26
2022-09-06T09:44:20.227Z,23.47
2022-09-06T09:46:49.899Z,23.73
2022-09-06T09:49:30.733Z,23.99
2022-09-06T09:52:07.767Z,24.12
2022-09-06T09:54:41.823Z,24.20
2022-09-06T09:57:12.200Z,24.22
2022-09-06T09:59:46.401Z,24.34
2022-09-06T10:02:22.470Z,24.30
2022-09-06T10:05:00.838Z,24.40
2022-09-06T10:07:29.996Z,24.38
2022-09-06T10:10:01.353Z,24.61
2022-09-06T10:12:30.681Z,24.84
2022-09-06T10:15:02.427Z,24.95
2022-09-06T10:17:35.479Z,24.84
2022-09-06T10:20:10.866Z,24.87
2022-09-06T10:22:52.020Z,25.08
2022-09-06T10:25:39.708Z,25.37
2022-09-06T10:28:30.116Z,25.68
2022-09-06T10:31:27.447Z,25.70
2022-09-06T10:34:08.253Z,25.67
2022-09-06T10:36:41.575Z,25.90
2022-09-06T10:39:20.239Z,26.03
2022-09-06T10:41:59.262Z,25.40
2022-09-06T10:44:47.250Z,24.04
2022-09-06T10:47:18.682Z,23.73
2022-09-06T10:49:52.261Z,24.13
2022-09-06T10:52:26.943Z,24.79
2022-09-06T10:55:02.285Z,25.26
2022-09-06T11:00:25.710Z,25.96
2022-09-06T11:05:54.935Z,25.97
2022-09-06T11:08:46.765Z,26.11
2022-09-06T11:11:23.396Z,26.23
2022-09-06T11:13:52.241Z,26.25
2022-09-06T11:16:26.757Z,26.41
2022-09-06T11:19:00.182Z,26.56
2022-09-06T11:22:04.062Z,26.73
2022-09-06T11:24:50.114Z,27.02
2022-09-06T11:27:27.089Z,27.12
2022-09-06T11:29:57.672Z,27.00
2022-09-06T11:32:34.376Z,26.92
2022-09-06T11:35:07.453Z,26.94
2022-09-06T11:37:39.907Z,27.04
2022-09-06T11:43:20.329Z,27.25
2022-09-06T11:45:51.355Z,27.17
2022-09-06T11:48:58.321Z,27.06
2022-09-06T11:51:36.473Z,26.90
2022-09-06T11:54:18.394Z,26.67
2022-09-06T11:56:56.238Z,26.93
2022-09-06T11:59:44.691Z,27.09
2022-09-06T12:02:33.099Z,27.34
2022-09-06T12:05:29.395Z,27.20
2022-09-06T12:08:29.386Z,27.30
2022-09-06T12:11:27.070Z,27.46
2022-09-06T12:14:03.768Z,27.51
2022-09-06T12:17:26.295Z,27.39
2022-09-06T12:19:55.838Z,27.16
2022-09-06T12:22:53.151Z,27.09
2022-09-06T12:26:08.196Z,26.91
2022-09-06T12:28:45.359Z,26.31
2022-09-06T12:31:36.194Z,26.04
2022-09-06T12:34:13.106Z,25.86
2022-09-06T12:36:52.470Z,25.75
2022-09-06T12:39:22.516Z,25.92
2022-09-06T12:41:55.181Z,25.99
2022-09-06T12:44:31.917Z,26.17
2022-09-06T12:47:07.797Z,26.36
2022-09-06T12:49:38.656Z,26.48
2022-09-06T12:52:12.994Z,26.33
2022-09-06T12:54:50.463Z,26.43
2022-09-06T12:57:21.658Z,26.53
2022-09-06T12:59:53.912Z,26.68
2022-09-06T13:02:31.835Z,26.67
2022-09-06T13:05:06.800Z,26.68
2022-09-06T13:07:42.752Z,26.54
2022-09-06T13:10:14.002Z,26.23
2022-09-06T13:12:46.251Z,26.00
2022-09-06T13:15:20.210Z,25.89
2022-09-06T13:17:50.736Z,26.00
2022-09-06T13:20:26.905Z,26.12
2022-09-06T13:23:06.854Z,26.02
2022-09-06T13:25:36.019Z,26.05
2022-09-06T13:28:05.306Z,25.93
2022-09-06T13:30:37.996Z,25.86
2022-09-06T13:33:10.356Z,25.82
2022-09-06T13:35:39.889Z,25.87
2022-09-06T13:38:23.142Z,25.81
2022-09-06T13:41:10.960Z,25.75
2022-09-06T13:43:46.467Z,25.62
2022-09-06T13:46:16.511Z,25.59
2022-09-06T13:48:46.886Z,25.52
2022-09-06T13:51:15.930Z,25.43
2022-09-06T13:53:45.176Z,25.38
2022-09-06T13:56:14.257Z,25.30
2022-09-06T13:58:45.349Z,25.18
2022-09-06T14:01:15.029Z,24.91
2022-09-06T14:03:44.859Z,24.74
2022-09-06T14:06:15.377Z,24.71
2022-09-06T14:09:06.001Z,24.71
2022-09-06T14:11:33.728Z,24.62
2022-09-06T14:14:02.618Z,24.54
2022-09-06T14:16:32.076Z,24.39
2022-09-06T14:19:00.601Z,24.12
2022-09-06T14:21:30.774Z,23.90
2022-09-06T14:24:03.908Z,23.74
2022-09-06T14:26:34.269Z,23.50
2022-09-06T14:29:03.304Z,23.26
2022-09-06T14:31:34.038Z,22.99
2022-09-06T14:34:04.308Z,22.70
2022-09-06T14:36:35.450Z,22.46
2022-09-06T14:39:05.888Z,22.28
2022-09-06T14:41:36.558Z,22.11
2022-09-06T14:44:10.261Z,21.90
2022-09-06T14:46:42.829Z,21.79
2022-09-06T14:49:12.698Z,21.49
2022-09-06T14:51:43.513Z,21.22
2022-09-06T14:54:14.743Z,20.99
2022-09-06T14:56:44.362Z,20.80
2022-09-06T14:59:13.709Z,20.73
2022-09-06T15:01:42.970Z,20.65
2022-09-06T15:04:12.357Z,20.48
2022-09-06T15:06:47.362Z,20.27
2022-09-06T15:09:16.488Z,20.05
2022-09-06T15:11:48.023Z,19.89
2022-09-06T15:14:18.999Z,19.73
2022-09-06T15:16:55.919Z,19.57
2022-09-06T15:19:27.467Z,19.39
2022-09-06T15:21:58.567Z,19.31
2022-09-06T15:24:27.455Z,19.27
2022-09-06T15:26:56.402Z,19.22
2022-09-06T15:29:25.264Z,19.20
2022-09-06T15:31:54.841Z,19.20
2022-09-06T15:34:26.955Z,19.24
2022-09-06T15:37:00.443Z,19.26
2022-09-06T15:39:28.999Z,19.27
2022-09-06T15:41:58.384Z,19.23
2022-09-06T15:44:27.205Z,19.18
2022-09-06T15:47:00.454Z,19.11
2022-09-06T15:49:32.341Z,18.97
2022-09-06T15:52:03.975Z,18.85
2022-09-06T15:54:50.222Z,18.71
2022-09-06T15:57:20.019Z,18.62
2022-09-06T15:59:49.354Z,18.57
2022-09-06T16:02:20.329Z,18.47
2022-09-06T16:04:49.119Z,18.38
2022-09-06T16:07:19.877Z,18.27
2022-09-06T16:09:48.906Z,18.14
2022-09-06T16:12:17.760Z,18.04
2022-09-06T16:14:47.144Z,17.98
2022-09-06T16:17:15.970Z,17.92
2022-09-06T16:19:45.683Z,17.86
2022-09-06T16:22:15.297Z,17.80
2022-09-06T16:24:46.147Z,17.75
2022-09-06T16:27:14.988Z,17.70
2022-09-06T16:29:45.521Z,17.63
2022-09-06T16:32:14.448Z,17.55
2022-09-06T16:34:43.002Z,17.48
2022-09-06T16:37:11.644Z,17.44
2022-09-06T16:39:40.443Z,17.36
2022-09-06T16:42:11.417Z,17.29
2022-09-06T16:44:40.382Z,17.20
2022-09-06T16:47:11.659Z,17.09
2022-09-06T16:49:42.452Z,16.97
2022-09-06T16:52:11.313Z,16.85
2022-09-06T16:54:40.190Z,16.76
2022-09-06T16:57:08.736Z,16.63
2022-09-06T16:59:38.779Z,16.47
2022-09-06T17:02:07.814Z,16.34
2022-09-06T17:04:37.413Z,16.21
2022-09-06T17:07:06.275Z,16.06
2022-09-06T17:09:35.572Z,15.90
2022-09-06T17:12:05.089Z,15.73
2022-09-06T17:14:33.792Z,15.57
2022-09-06T17:17:05.704Z,15.40
2022-09-06T17:19:40.707Z,15.16
2022-09-06T17:22:11.304Z,14.95
2022-09-06T17:24:40.669Z,14.85
2022-09-06T17:27:10.645Z,14.76
2022-09-06T17:29:40.302Z,14.73
2022-09-06T17:32:11.177Z,14.69
2022-09-06T17:34:40.346Z,14.63
2022-09-06T17:37:09.328Z,14.54
2022-09-06T17:39:38.039Z,14.46
2022-09-06T17:42:07.570Z,14.40
2022-09-06T17:44:36.285Z,14.34
2022-09-06T17:47:12.938Z,14.28
2022-09-06T17:49:44.008Z,14.25
2022-09-06T17:52:13.780Z,14.20
2022-09-06T17:54:42.553Z,14.19
2022-09-06T17:57:11.053Z,14.18
2022-09-06T17:59:39.621Z,14.16
2022-09-06T18:02:09.014Z,14.10
2022-09-06T18:04:37.912Z,14.03
2022-09-06T18:07:07.796Z,13.95
2022-09-06T18:09:37.146Z,13.89
2022-09-06T18:12:06.996Z,13.81
2022-09-06T18:14:35.647Z,13.75
2022-09-06T18:17:05.001Z,13.72
2022-09-06T18:19:33.694Z,13.65
2022-09-06T18:22:02.547Z,13.54
2022-09-06T18:24:32.893Z,13.44
2022-09-06T18:27:03.261Z,13.37
2022-09-06T18:29:31.693Z,13.25
2022-09-06T18:32:00.591Z,13.17
2022-09-06T18:34:29.086Z,13.08
2022-09-06T18:36:57.562Z,12.99
2022-09-06T18:39:26.575Z,12.90
2022-09-06T18:42:04.161Z,12.84
2022-09-06T18:44:34.342Z,12.75
2022-09-06T18:47:05.810Z,12.64
2022-09-06T18:49:35.038Z,12.47
2022-09-06T18:52:04.570Z,12.33
2022-09-06T18:54:34.098Z,12.24
2022-09-06T18:57:04.454Z,12.09
2022-09-06T18:59:33.501Z,11.92
2022-09-06T19:02:02.049Z,11.78
2022-09-06T19:04:33.642Z,11.64
2022-09-06T19:07:03.058Z,11.50
2022-09-06T19:09:31.903Z,11.40
2022-09-06T19:12:02.160Z,11.38
2022-09-06T19:14:33.792Z,11.43
2022-09-06T19:17:02.929Z,11.46
2022-09-06T19:19:31.801Z,11.49
2022-09-06T19:22:00.502Z,11.45
2022-09-06T19:24:29.154Z,11.41
2022-09-06T19:26:57.889Z,11.32
2022-09-06T19:29:27.724Z,11.23
2022-09-06T19:31:57.744Z,11.12
2022-09-06T19:34:27.091Z,11.01
2022-09-06T19:36:57.530Z,10.99
2022-09-06T19:39:32.366Z,10.93
2022-09-06T19:42:03.620Z,10.95
2022-09-06T19:44:32.717Z,10.97
2022-09-06T19:47:03.061Z,10.92
2022-09-06T19:49:31.960Z,10.83
2022-09-06T19:52:01.923Z,10.78
2022-09-06T19:54:30.548Z,10.75
2022-09-06T19:57:00.633Z,10.78
2022-09-06T19:59:29.598Z,10.78
2022-09-06T20:01:58.026Z,10.75
2022-09-06T20:04:29.611Z,10.67
2022-09-06T20:06:58.289Z,10.55
2022-09-06T20:09:26.827Z,10.43
2022-09-06T20:11:55.298Z,10.31
2022-09-06T20:14:24.617Z,10.23
2022-09-06T20:16:53.458Z,10.17
2022-09-06T20:19:22.018Z,10.08
2022-09-06T20:21:52.435Z,10.00
2022-09-06T20:24:21.348Z,9.90
2022-09-06T20:26:52.465Z,9.85
2022-09-06T20:29:21.608Z,9.80
2022-09-06T20:31:50.457Z,9.76
2022-09-06T20:34:19.792Z,9.79
2022-09-06T20:36:49.400Z,9.78
2022-09-06T20:39:19.307Z,9.75
2022-09-06T20:41:47.723Z,9.70
2022-09-06T20:44:16.613Z,9.71
2022-09-06T20:46:45.245Z,9.75
2022-09-06T20:49:15.934Z,9.79
2022-09-06T20:51:44.496Z,9.78
2022-09-06T20:54:14.125Z,9.74
2022-09-06T20:56:44.425Z,9.69
2022-09-06T20:59:14.397Z,9.60
2022-09-06T21:01:44.830Z,9.51
2022-09-06T21:04:15.757Z,9.48
2022-09-06T21:06:45.949Z,9.44
2022-09-06T21:09:16.105Z,9.36
2022-09-06T21:11:46.607Z,9.32
2022-09-06T21:14:15.356Z,9.28
2022-09-06T21:16:43.881Z,9.22
2022-09-06T21:19:13.619Z,9.10
2022-09-06T21:21:42.640Z,9.03
2022-09-06T21:24:12.301Z,8.96
2022-09-06T21:26:43.051Z,8.91
2022-09-06T21:29:13.308Z,8.90
2022-09-06T21:31:41.713Z,8.88
2022-09-06T21:34:16.881Z,8.84
2022-09-06T21:36:46.146Z,8.76
2022-09-06T21:39:16.377Z,8.71
2022-09-06T21:41:46.668Z,8.64
2022-09-06T21:44:16.597Z,8.60
2022-09-06T21:46:45.185Z,8.58
2022-09-06T21:49:15.117Z,8.55
2022-09-06T21:51:44.086Z,8.46
2022-09-06T21:54:12.694Z,8.42
2022-09-06T21:56:41.724Z,8.40
2022-09-06T21:59:11.275Z,8.36
2022-09-06T22:01:43.934Z,8.34
2022-09-06T22:04:14.257Z,8.28
2022-09-06T22:06:43.088Z,8.29
2022-09-06T22:09:13.505Z,8.26
2022-09-06T22:11:44.472Z,8.25
2022-09-06T22:14:15.365Z,8.24
2022-09-06T22:16:45.226Z,8.22
2022-09-06T22:19:15.473Z,8.20
2022-09-06T22:21:43.949Z,8.17
2022-09-06T22:24:14.410Z,8.15
2022-09-06T22:26:43.631Z,8.15
2022-09-06T22:29:15.648Z,8.14
2022-09-06T22:31:46.292Z,8.10
2022-09-06T22:34:14.927Z,8.05
2022-09-06T22:36:43.850Z,7.98
2022-09-06T22:39:12.439Z,7.93
2022-09-06T22:41:41.282Z,7.87
2022-09-06T22:44:09.645Z,7.78
2022-09-06T22:46:40.121Z,7.72
2022-09-06T22:49:10.125Z,7.67
2022-09-06T22:51:39.054Z,7.63
2022-09-06T22:54:07.699Z,7.57
2022-09-06T22:56:36.552Z,7.54
2022-09-06T22:59:06.610Z,7.47
2022-09-06T23:01:39.321Z,7.43
2022-09-06T23:04:11.187Z,7.37
2022-09-06T23:06:39.604Z,7.34
2022-09-06T23:09:09.205Z,7.35
2022-09-06T23:11:37.702Z,7.37
2022-09-06T23:14:06.260Z,7.38
2022-09-06T23:16:34.820Z,7.36
2022-09-06T23:19:04.095Z,7.34
2022-09-06T23:21:34.302Z,7.35
2022-09-06T23:24:03.054Z,7.33
2022-09-06T23:26:33.240Z,7.31
2022-09-06T23:29:02.328Z,7.33
2022-09-06T23:31:32.677Z,7.34
2022-09-06T23:34:02.582Z,7.42
2022-09-06T23:36:31.370Z,7.43
2022-09-06T23:39:02.260Z,7.38
2022-09-06T23:41:31.124Z,7.36
2022-09-06T23:44:00.561Z,7.32
2022-09-06T23:46:29.601Z,7.27
2022-09-06T23:48:59.430Z,7.25
2022-09-06T23:51:27.820Z,7.22
2022-09-06T23:53:56.462Z,7.20
2022-09-06T23:56:26.235Z,7.17
2022-09-06T23:58:55.215Z,7.14
